createdAt,value
2019-06-20T00:00:16.031Z,1004.79
2019-06-20T00:01:16.092Z,1004.82
2019-06-20T00:02:16.240Z,1004.80
2019-06-20T00:03:16.174Z,1004.77
2019-06-20T00:04:16.126Z,1004.75
2019-06-20T00:05:16.224Z,1004.78
2019-06-20T00:06:16.031Z,1004.85
2019-06-20T00:07:16.580Z,1004.83
2019-06-20T00:08:16.012Z,1004.86
2019-06-20T00:09:15.980Z,1004.82
2019-06-20T00:10:16.090Z,1004.85
2019-06-20T00:11:17.607Z,1004.84
2019-06-20T00:12:16.701Z,1004.78
2019-06-20T00:13:16.107Z,1004.80
2019-06-20T00:14:15.976Z,1004.81
2019-06-20T00:15:18.625Z,1004.82
2019-06-20T00:16:16.143Z,1004.75
2019-06-20T00:17:15.991Z,1004.75
2019-06-20T00:18:16.602Z,1004.75
2019-06-20T00:19:15.962Z,1004.75
2019-06-20T00:20:16.107Z,1004.75
2019-06-20T00:21:15.832Z,1004.80
2019-06-20T00:22:15.816Z,1004.84
2019-06-20T00:23:15.988Z,1004.78
2019-06-20T00:24:15.852Z,1004.81
2019-06-20T00:25:15.920Z,1004.75
2019-06-20T00:26:16.000Z,1004.80
2019-06-20T00:27:15.932Z,1004.82
2019-06-20T00:28:17.642Z,1004.78
2019-06-20T00:29:15.857Z,1004.79
2019-06-20T00:30:15.767Z,1004.79
2019-06-20T00:31:17.596Z,1004.76
2019-06-20T00:32:15.786Z,1004.74
2019-06-20T00:33:15.854Z,1004.71
2019-06-20T00:35:17.629Z,1004.69
2019-06-20T00:36:15.805Z,1004.65
2019-06-20T00:37:16.678Z,1004.67
2019-06-20T00:38:17.531Z,1004.68
2019-06-20T00:39:16.571Z,1004.68
2019-06-20T00:40:15.811Z,1004.69
2019-06-20T00:41:15.722Z,1004.68
2019-06-20T00:42:16.640Z,1004.69
2019-06-20T00:43:17.975Z,1004.73
2019-06-20T00:44:16.507Z,1004.75
2019-06-20T00:45:17.633Z,1004.78
2019-06-20T00:46:15.618Z,1004.78
2019-06-20T00:47:15.732Z,1004.79
2019-06-20T00:48:19.995Z,1004.81
2019-06-20T00:49:15.450Z,1004.78
2019-06-20T00:50:15.990Z,1004.78
2019-06-20T00:51:15.461Z,1004.77
2019-06-20T00:52:15.518Z,1004.78
2019-06-20T00:53:15.548Z,1004.79
2019-06-20T00:54:16.197Z,1004.79
2019-06-20T00:55:15.638Z,1004.82
2019-06-20T00:56:18.107Z,1004.82
2019-06-20T00:57:15.739Z,1004.75
2019-06-20T00:58:16.077Z,1004.77
2019-06-20T00:59:17.151Z,1004.78
2019-06-20T01:00:17.123Z,1004.78
2019-06-20T01:01:15.561Z,1004.74
2019-06-20T01:02:15.522Z,1004.74
2019-06-20T01:03:16.002Z,1004.71
2019-06-20T01:04:15.516Z,1004.75
2019-06-20T01:05:15.410Z,1004.75
2019-06-20T01:06:15.482Z,1004.70
2019-06-20T01:07:15.363Z,1004.72
2019-06-20T01:08:15.371Z,1004.73
2019-06-20T01:09:15.504Z,1004.77
2019-06-20T01:10:15.337Z,1004.76
2019-06-20T01:11:15.393Z,1004.76
2019-06-20T01:12:15.451Z,1004.70
2019-06-20T01:13:15.252Z,1004.73
2019-06-20T01:14:17.184Z,1004.72
2019-06-20T01:15:15.381Z,1004.70
2019-06-20T01:16:15.387Z,1004.68
2019-06-20T01:17:15.408Z,1004.69
2019-06-20T01:18:17.134Z,1004.71
2019-06-20T01:19:16.243Z,1004.69
2019-06-20T01:20:15.226Z,1004.69
2019-06-20T01:21:15.226Z,1004.65
2019-06-20T01:22:15.202Z,1004.71
2019-06-20T01:23:15.419Z,1004.68
2019-06-20T01:24:16.216Z,1004.71
2019-06-20T01:25:15.242Z,1004.72
2019-06-20T01:26:15.249Z,1004.78
2019-06-20T01:27:15.360Z,1004.71
2019-06-20T01:28:15.325Z,1004.73
2019-06-20T01:29:15.166Z,1004.75
2019-06-20T01:30:15.200Z,1004.77
2019-06-20T01:31:15.122Z,1004.74
2019-06-20T01:32:15.140Z,1004.75
2019-06-20T01:33:15.152Z,1004.77
2019-06-20T01:34:15.366Z,1004.81
2019-06-20T01:35:15.093Z,1004.78
2019-06-20T01:36:15.026Z,1004.80
2019-06-20T01:37:15.239Z,1004.81
2019-06-20T01:38:15.333Z,1004.82
2019-06-20T01:39:15.078Z,1004.81
2019-06-20T01:40:15.049Z,1004.78
2019-06-20T01:41:15.023Z,1004.78
2019-06-20T01:42:15.102Z,1004.79
2019-06-20T01:43:16.671Z,1004.79
2019-06-20T01:44:15.637Z,1004.81
2019-06-20T01:45:15.590Z,1004.77
2019-06-20T01:46:14.886Z,1004.76
2019-06-20T01:47:15.140Z,1004.73
2019-06-20T01:48:14.911Z,1004.74
2019-06-20T01:49:15.070Z,1004.75
2019-06-20T01:50:15.023Z,1004.73
2019-06-20T01:51:14.932Z,1004.77
2019-06-20T01:52:15.084Z,1004.75
2019-06-20T01:53:14.930Z,1004.76
2019-06-20T01:54:14.933Z,1004.79
2019-06-20T01:55:14.879Z,1004.79
2019-06-20T01:56:14.825Z,1004.83
2019-06-20T01:57:15.010Z,1004.84
2019-06-20T01:58:14.893Z,1004.86
2019-06-20T01:59:15.050Z,1004.87
2019-06-20T02:00:14.813Z,1004.85
2019-06-20T02:01:14.959Z,1004.83
2019-06-20T02:02:14.898Z,1004.87
2019-06-20T02:03:14.891Z,1004.87
2019-06-20T02:04:14.986Z,1004.87
2019-06-20T02:05:14.932Z,1004.84
2019-06-20T02:06:15.741Z,1004.84
2019-06-20T02:07:14.891Z,1004.83
2019-06-20T02:08:14.750Z,1004.82
2019-06-20T02:09:14.723Z,1004.85
2019-06-20T02:10:15.689Z,1004.86
2019-06-20T02:11:14.797Z,1004.90
2019-06-20T02:12:14.898Z,1004.90
2019-06-20T02:13:14.718Z,1004.86
2019-06-20T02:14:14.702Z,1004.79
2019-06-20T02:15:14.850Z,1004.81
2019-06-20T02:16:14.768Z,1004.74
2019-06-20T02:17:14.820Z,1004.72
2019-06-20T02:18:14.666Z,1004.69
2019-06-20T02:19:16.276Z,1004.67
2019-06-20T02:20:14.679Z,1004.67
2019-06-20T02:21:14.787Z,1004.68
2019-06-20T02:22:14.790Z,1004.70
2019-06-20T02:23:14.750Z,1004.67
2019-06-20T02:24:14.814Z,1004.69
2019-06-20T02:25:15.292Z,1004.71
2019-06-20T02:26:14.562Z,1004.73
2019-06-20T02:27:14.653Z,1004.73
2019-06-20T02:28:14.791Z,1004.72
2019-06-20T02:29:14.556Z,1004.72
2019-06-20T02:30:14.512Z,1004.74
2019-06-20T02:31:14.644Z,1004.73
2019-06-20T02:32:15.287Z,1004.74
2019-06-20T02:33:14.695Z,1004.76
2019-06-20T02:34:14.493Z,1004.72
2019-06-20T02:35:14.718Z,1004.77
2019-06-20T02:36:14.552Z,1004.75
2019-06-20T02:38:14.494Z,1004.78
2019-06-20T02:39:14.578Z,1004.79
2019-06-20T02:40:14.467Z,1004.77
2019-06-20T02:41:14.378Z,1004.80
2019-06-20T02:42:14.438Z,1004.81
2019-06-20T02:43:14.561Z,1004.76
2019-06-20T02:44:29.219Z,1004.78
2019-06-20T02:45:14.431Z,1004.75
2019-06-20T02:46:14.459Z,1004.78
2019-06-20T02:47:14.525Z,1004.77
2019-06-20T02:48:14.338Z,1004.73
2019-06-20T02:50:14.596Z,1004.73
2019-06-20T02:51:14.427Z,1004.72
2019-06-20T02:52:14.374Z,1004.71
2019-06-20T02:53:14.311Z,1004.68
2019-06-20T02:54:16.229Z,1004.66
2019-06-20T02:55:14.495Z,1004.68
2019-06-20T02:56:14.307Z,1004.65
2019-06-20T02:57:14.173Z,1004.64
2019-06-20T02:58:14.486Z,1004.64
2019-06-20T02:59:14.495Z,1004.66
2019-06-20T03:00:14.257Z,1004.66
2019-06-20T03:01:15.201Z,1004.67
2019-06-20T03:02:14.275Z,1004.64
2019-06-20T03:03:14.255Z,1004.61
2019-06-20T03:04:14.205Z,1004.63
2019-06-20T03:05:14.259Z,1004.57
2019-06-20T03:06:14.295Z,1004.54
2019-06-20T03:07:14.315Z,1004.54
2019-06-20T03:08:15.221Z,1004.54
2019-06-20T03:09:14.293Z,1004.57
2019-06-20T03:10:14.158Z,1004.58
2019-06-20T03:11:14.630Z,1004.54
2019-06-20T03:12:14.241Z,1004.58
2019-06-20T03:13:14.268Z,1004.64
2019-06-20T03:14:14.676Z,1004.61
2019-06-20T03:15:14.200Z,1004.60
2019-06-20T03:16:14.136Z,1004.57
2019-06-20T03:17:14.163Z,1004.56
2019-06-20T03:18:14.018Z,1004.62
2019-06-20T03:19:14.160Z,1004.61
2019-06-20T03:20:14.257Z,1004.66
2019-06-20T03:21:14.185Z,1004.64
2019-06-20T03:22:14.213Z,1004.65
2019-06-20T03:23:14.065Z,1004.62
2019-06-20T03:24:14.772Z,1004.58
2019-06-20T03:25:14.002Z,1004.58
2019-06-20T03:26:13.949Z,1004.60
2019-06-20T03:27:14.031Z,1004.62
2019-06-20T03:28:13.918Z,1004.62
2019-06-20T03:29:14.170Z,1004.62
2019-06-20T03:30:14.016Z,1004.62
2019-06-20T03:31:14.159Z,1004.58
2019-06-20T03:32:15.738Z,1004.57
2019-06-20T03:33:14.102Z,1004.61
2019-06-20T03:34:14.076Z,1004.60
2019-06-20T03:35:13.892Z,1004.67
2019-06-20T03:36:14.804Z,1004.64
2019-06-20T03:37:14.571Z,1004.63
2019-06-20T03:38:13.931Z,1004.57
2019-06-20T03:39:13.934Z,1004.61
2019-06-20T03:40:15.816Z,1004.64
2019-06-20T03:41:13.843Z,1004.63
2019-06-20T03:42:16.702Z,1004.60
2019-06-20T03:43:14.058Z,1004.59
2019-06-20T03:44:13.779Z,1004.58
2019-06-20T03:45:14.016Z,1004.58
2019-06-20T03:46:14.666Z,1004.60
2019-06-20T03:47:13.855Z,1004.58
2019-06-20T03:48:13.919Z,1004.58
2019-06-20T03:49:13.691Z,1004.59
2019-06-20T03:50:13.860Z,1004.60
2019-06-20T03:51:13.759Z,1004.57
2019-06-20T03:52:20.711Z,1004.56
2019-06-20T03:53:13.771Z,1004.54
2019-06-20T03:54:13.821Z,1004.54
2019-06-20T03:55:13.656Z,1004.54
2019-06-20T03:56:13.774Z,1004.54
2019-06-20T03:57:13.622Z,1004.57
2019-06-20T03:58:13.716Z,1004.52
2019-06-20T03:59:13.875Z,1004.51
2019-06-20T04:00:14.304Z,1004.48
2019-06-20T04:01:14.370Z,1004.44
2019-06-20T04:02:13.664Z,1004.49
2019-06-20T04:03:14.266Z,1004.48
2019-06-20T04:04:13.800Z,1004.51
2019-06-20T04:05:13.696Z,1004.53
2019-06-20T04:06:13.798Z,1004.54
2019-06-20T04:07:13.738Z,1004.58
2019-06-20T04:08:13.639Z,1004.58
2019-06-20T04:09:13.558Z,1004.58
2019-06-20T04:10:15.301Z,1004.59
2019-06-20T04:11:13.679Z,1004.60
2019-06-20T04:12:13.634Z,1004.60
2019-06-20T04:13:13.487Z,1004.64
2019-06-20T04:14:13.686Z,1004.62
2019-06-20T04:15:19.019Z,1004.66
2019-06-20T04:16:13.542Z,1004.61
2019-06-20T04:17:13.453Z,1004.59
2019-06-20T04:18:13.617Z,1004.57
2019-06-20T04:19:13.580Z,1004.59
2019-06-20T04:20:13.469Z,1004.59
2019-06-20T04:21:13.594Z,1004.58
2019-06-20T04:22:13.650Z,1004.59
2019-06-20T04:23:13.595Z,1004.58
2019-06-20T04:24:14.401Z,1004.58
2019-06-20T04:25:14.327Z,1004.61
2019-06-20T04:26:13.496Z,1004.59
2019-06-20T04:27:14.201Z,1004.62
2019-06-20T04:28:13.453Z,1004.59
2019-06-20T04:29:13.451Z,1004.62
2019-06-20T04:30:13.520Z,1004.67
2019-06-20T04:31:13.509Z,1004.65
2019-06-20T04:32:13.488Z,1004.63
2019-06-20T04:33:13.425Z,1004.67
2019-06-20T04:34:14.319Z,1004.62
2019-06-20T04:35:14.327Z,1004.66
2019-06-20T04:36:13.382Z,1004.65
2019-06-20T04:37:13.305Z,1004.63
2019-06-20T04:38:13.449Z,1004.65
2019-06-20T04:39:19.147Z,1004.59
2019-06-20T04:40:13.395Z,1004.63
2019-06-20T04:41:13.534Z,1004.64
2019-06-20T04:42:14.188Z,1004.64
2019-06-20T04:43:13.424Z,1004.64
2019-06-20T04:44:13.463Z,1004.58
2019-06-20T04:45:15.350Z,1004.60
2019-06-20T04:46:13.338Z,1004.60
2019-06-20T04:47:13.384Z,1004.62
2019-06-20T04:48:15.213Z,1004.61
2019-06-20T04:49:13.344Z,1004.59
2019-06-20T04:50:13.354Z,1004.63
2019-06-20T04:51:13.332Z,1004.60
2019-06-20T04:52:14.272Z,1004.59
2019-06-20T04:53:13.755Z,1004.59
2019-06-20T04:54:15.822Z,1004.57
2019-06-20T04:55:13.382Z,1004.56
2019-06-20T04:56:13.264Z,1004.59
2019-06-20T04:57:13.190Z,1004.62
2019-06-20T04:58:13.053Z,1004.64
2019-06-20T04:59:13.216Z,1004.65
2019-06-20T05:00:13.751Z,1004.64
2019-06-20T05:01:13.815Z,1004.68
2019-06-20T05:02:15.058Z,1004.61
2019-06-20T05:03:13.688Z,1004.62
2019-06-20T05:04:13.241Z,1004.58
2019-06-20T05:05:13.973Z,1004.58
2019-06-20T05:06:13.262Z,1004.61
2019-06-20T05:07:13.188Z,1004.61
2019-06-20T05:08:13.078Z,1004.61
2019-06-20T05:09:13.220Z,1004.61
2019-06-20T05:10:13.124Z,1004.59
2019-06-20T05:11:15.782Z,1004.62
2019-06-20T05:12:13.229Z,1004.63
2019-06-20T05:13:13.246Z,1004.62
2019-06-20T05:14:13.271Z,1004.58
2019-06-20T05:15:13.312Z,1004.60
2019-06-20T05:16:13.221Z,1004.57
2019-06-20T05:17:13.097Z,1004.59
2019-06-20T05:18:13.236Z,1004.58
2019-06-20T05:19:13.047Z,1004.58
2019-06-20T05:20:13.246Z,1004.55
2019-06-20T05:21:12.970Z,1004.57
2019-06-20T05:22:14.839Z,1004.55
2019-06-20T05:23:13.010Z,1004.56
2019-06-20T05:24:13.133Z,1004.60
2019-06-20T05:25:12.997Z,1004.56
2019-06-20T05:26:13.079Z,1004.61
2019-06-20T05:27:13.138Z,1004.59
2019-06-20T05:28:13.088Z,1004.58
2019-06-20T05:31:13.734Z,1004.54
2019-06-20T05:32:12.996Z,1004.57
2019-06-20T05:33:13.025Z,1004.55
2019-06-20T05:34:13.122Z,1004.57
2019-06-20T05:35:13.961Z,1004.54
2019-06-20T05:36:14.879Z,1004.56
2019-06-20T05:37:13.124Z,1004.56
2019-06-20T05:38:13.056Z,1004.59
2019-06-20T05:39:13.001Z,1004.53
2019-06-20T05:40:13.045Z,1004.53
2019-06-20T05:41:13.069Z,1004.52
2019-06-20T05:42:12.979Z,1004.52
2019-06-20T05:43:13.045Z,1004.52
2019-06-20T05:44:13.078Z,1004.52
2019-06-20T05:45:14.766Z,1004.47
2019-06-20T05:46:12.916Z,1004.44
2019-06-20T05:47:19.789Z,1004.46
2019-06-20T05:48:12.960Z,1004.49
2019-06-20T05:49:13.796Z,1004.50
2019-06-20T05:50:13.304Z,1004.49
2019-06-20T05:51:14.805Z,1004.51
2019-06-20T05:52:13.049Z,1004.51
2019-06-20T05:53:12.836Z,1004.50
2019-06-20T05:54:12.996Z,1004.51
2019-06-20T05:55:12.926Z,1004.54
2019-06-20T05:56:12.959Z,1004.56
2019-06-20T05:57:12.916Z,1004.51
2019-06-20T05:58:12.926Z,1004.50
2019-06-20T05:59:12.930Z,1004.46
2019-06-20T06:00:14.500Z,1004.52
2019-06-20T06:01:12.937Z,1004.48
2019-06-20T06:02:13.034Z,1004.45
2019-06-20T06:03:13.856Z,1004.44
2019-06-20T06:04:12.895Z,1004.41
2019-06-20T06:05:12.902Z,1004.41
2019-06-20T06:06:12.805Z,1004.40
2019-06-20T06:08:12.738Z,1004.34
2019-06-20T06:09:13.364Z,1004.37
2019-06-20T06:10:13.396Z,1004.36
2019-06-20T06:11:13.436Z,1004.37
2019-06-20T06:12:13.481Z,1004.39
2019-06-20T06:13:12.748Z,1004.36
2019-06-20T06:14:12.754Z,1004.35
2019-06-20T06:15:12.862Z,1004.35
2019-06-20T06:16:25.738Z,1004.27
2019-06-20T06:17:12.746Z,1004.29
2019-06-20T06:18:12.745Z,1004.29
2019-06-20T06:19:12.719Z,1004.30
2019-06-20T06:20:13.436Z,1004.23
2019-06-20T06:21:13.479Z,1004.22
2019-06-20T06:22:13.335Z,1004.28
2019-06-20T06:23:13.339Z,1004.28
2019-06-20T06:24:12.789Z,1004.26
2019-06-20T06:25:12.819Z,1004.25
2019-06-20T06:26:12.656Z,1004.31
2019-06-20T06:28:12.806Z,1004.32
2019-06-20T06:29:13.429Z,1004.38
2019-06-20T06:30:12.787Z,1004.31
2019-06-20T06:31:12.776Z,1004.35
2019-06-20T06:32:12.777Z,1004.38
2019-06-20T06:33:12.837Z,1004.32
2019-06-20T06:34:12.683Z,1004.29
2019-06-20T06:36:12.806Z,1004.32
2019-06-20T06:37:12.719Z,1004.29
2019-06-20T06:38:14.532Z,1004.30
2019-06-20T06:39:13.481Z,1004.25
2019-06-20T06:41:12.646Z,1004.25
2019-06-20T06:42:12.669Z,1004.28
2019-06-20T06:43:12.798Z,1004.35
2019-06-20T06:44:12.722Z,1004.26
2019-06-20T06:45:12.732Z,1004.24
2019-06-20T06:46:12.737Z,1004.24
2019-06-20T06:47:12.681Z,1004.33
2019-06-20T06:48:12.727Z,1004.28
2019-06-20T06:49:12.772Z,1004.26
2019-06-20T06:50:12.593Z,1004.27
2019-06-20T06:51:12.703Z,1004.28
2019-06-20T06:52:13.480Z,1004.23
2019-06-20T06:53:15.479Z,1004.25
2019-06-20T06:54:12.543Z,1004.25
2019-06-20T06:55:12.624Z,1004.22
2019-06-20T06:56:12.617Z,1004.24
2019-06-20T06:57:13.527Z,1004.19
2019-06-20T06:58:12.469Z,1004.14
2019-06-20T06:59:12.623Z,1004.17
2019-06-20T07:00:13.175Z,1004.23
2019-06-20T07:01:13.527Z,1004.14
2019-06-20T07:04:12.672Z,1004.16
2019-06-20T07:05:14.495Z,1004.16
2019-06-20T07:06:13.119Z,1004.15
2019-06-20T07:07:12.580Z,1004.18
2019-06-20T07:08:12.583Z,1004.18
2019-06-20T07:09:12.601Z,1004.15
2019-06-20T07:10:12.592Z,1004.16
2019-06-20T07:12:12.510Z,1004.21
2019-06-20T07:15:12.726Z,1004.17
2019-06-20T07:16:13.582Z,1004.24
2019-06-20T07:17:13.072Z,1004.24
2019-06-20T07:20:15.157Z,1004.22
2019-06-20T07:21:12.826Z,1004.25
2019-06-20T07:26:14.079Z,1004.16
2019-06-20T07:27:13.062Z,1004.09
2019-06-20T07:30:12.528Z,1004.17
2019-06-20T07:31:14.087Z,1004.08
2019-06-20T07:33:13.984Z,1004.08
2019-06-20T07:34:12.532Z,1004.12
2019-06-20T07:38:13.074Z,1004.10
2019-06-20T07:39:12.546Z,1004.11
2019-06-20T07:40:12.537Z,1004.05
2019-06-20T07:41:12.510Z,1004.03
2019-06-20T07:42:12.512Z,1004.06
2019-06-20T07:43:13.080Z,1004.02
2019-06-20T07:44:12.521Z,1004.11
2019-06-20T07:46:12.531Z,1004.04
2019-06-20T07:47:17.549Z,1004.08
2019-06-20T07:49:14.074Z,1004.08
2019-06-20T07:50:13.538Z,1004.15
2019-06-20T07:51:12.514Z,1004.11
2019-06-20T07:52:12.485Z,1004.09
2019-06-20T07:55:12.499Z,1004.03
2019-06-20T07:56:12.437Z,1004.01
2019-06-20T07:58:12.534Z,1004.18
2019-06-20T07:59:12.526Z,1004.12
2019-06-20T08:00:13.975Z,1004.04
2019-06-20T08:01:12.550Z,1004.11
2019-06-20T08:04:13.516Z,1004.05
2019-06-20T08:05:12.586Z,1004.13
2019-06-20T08:07:12.972Z,1004.00
2019-06-20T08:08:13.084Z,1004.02
2019-06-20T08:09:12.515Z,1004.08
2019-06-20T08:10:13.055Z,1004.05
2019-06-20T08:11:12.552Z,1004.09
2019-06-20T08:12:12.617Z,1004.06
2019-06-20T08:13:13.089Z,1004.07
2019-06-20T08:14:12.487Z,1004.07
2019-06-20T08:15:15.405Z,1004.08
2019-06-20T08:16:12.573Z,1004.03
2019-06-20T08:17:12.570Z,1004.08
2019-06-20T08:18:12.574Z,1004.02
2019-06-20T08:19:12.625Z,1003.99
2019-06-20T08:21:13.142Z,1004.00
2019-06-20T08:22:12.582Z,1004.01
2019-06-20T08:24:12.559Z,1004.02
2019-06-20T08:25:12.649Z,1004.03
2019-06-20T08:26:12.561Z,1004.01
2019-06-20T08:27:14.892Z,1003.99
2019-06-20T08:28:12.505Z,1003.98
2019-06-20T08:29:20.674Z,1003.98
2019-06-20T08:30:12.439Z,1003.96
2019-06-20T08:31:12.630Z,1003.95
2019-06-20T08:32:12.611Z,1003.94
2019-06-20T08:33:12.504Z,1003.93
2019-06-20T08:34:13.577Z,1003.88
2019-06-20T08:35:12.614Z,1003.93
2019-06-20T08:36:13.392Z,1003.91
2019-06-20T08:37:13.463Z,1003.87
2019-06-20T08:38:12.644Z,1003.87
2019-06-20T08:39:12.533Z,1003.87
2019-06-20T08:40:13.104Z,1003.85
2019-06-20T08:42:12.611Z,1003.89
2019-06-20T08:43:12.734Z,1003.89
2019-06-20T08:44:12.819Z,1003.88
2019-06-20T08:45:12.677Z,1003.85
2019-06-20T08:46:12.698Z,1003.89
2019-06-20T08:47:12.524Z,1003.91
2019-06-20T08:48:12.667Z,1003.91
2019-06-20T08:49:12.693Z,1003.91
2019-06-20T08:50:12.713Z,1003.97
2019-06-20T08:51:14.675Z,1003.93
2019-06-20T08:52:12.641Z,1003.96
2019-06-20T08:53:12.693Z,1003.97
2019-06-20T08:54:13.421Z,1003.93
2019-06-20T08:55:12.594Z,1003.98
2019-06-20T08:56:12.864Z,1004.00
2019-06-20T08:57:12.766Z,1004.03
2019-06-20T08:58:12.505Z,1003.99
2019-06-20T08:59:23.915Z,1003.92
2019-06-20T09:00:12.668Z,1003.92
2019-06-20T09:01:12.781Z,1003.92
2019-06-20T09:02:12.946Z,1003.95
2019-06-20T09:03:12.656Z,1003.91
2019-06-20T09:04:13.470Z,1003.93
2019-06-20T09:05:12.793Z,1003.89
2019-06-20T09:06:12.630Z,1004.07
2019-06-20T09:07:12.704Z,1003.93
2019-06-20T09:08:12.726Z,1003.91
2019-06-20T09:09:12.814Z,1003.91
2019-06-20T09:10:12.769Z,1003.90
2019-06-20T09:11:12.781Z,1003.83
2019-06-20T09:12:12.821Z,1003.87
2019-06-20T09:13:13.012Z,1003.87
2019-06-20T09:14:12.699Z,1003.88
2019-06-20T09:15:12.945Z,1003.75
2019-06-20T09:16:24.123Z,1003.83
2019-06-20T09:17:12.862Z,1003.88
2019-06-20T09:18:12.995Z,1003.81
2019-06-20T09:19:12.910Z,1003.91
2019-06-20T09:20:12.808Z,1003.88
2019-06-20T09:21:12.778Z,1003.92
2019-06-20T09:22:12.882Z,1003.95
2019-06-20T09:23:12.746Z,1003.85
2019-06-20T09:24:12.975Z,1003.97
2019-06-20T09:25:12.964Z,1003.90
2019-06-20T09:26:12.835Z,1003.89
2019-06-20T09:27:15.435Z,1003.89
2019-06-20T09:28:13.023Z,1003.90
2019-06-20T09:29:12.868Z,1003.89
2019-06-20T09:30:12.827Z,1003.95
2019-06-20T09:31:13.494Z,1003.93
2019-06-20T09:32:12.892Z,1003.94
2019-06-20T09:33:12.927Z,1004.01
2019-06-20T09:34:14.860Z,1003.92
2019-06-20T09:35:13.154Z,1003.90
2019-06-20T09:36:12.924Z,1003.95
2019-06-20T09:37:13.021Z,1003.89
2019-06-20T09:38:13.847Z,1003.89
2019-06-20T09:40:13.005Z,1003.84
2019-06-20T09:41:13.233Z,1003.88
2019-06-20T09:42:12.896Z,1003.85
2019-06-20T09:43:26.726Z,1003.82
2019-06-20T09:44:13.764Z,1003.90
2019-06-20T09:45:12.877Z,1003.90
2019-06-20T09:46:12.940Z,1003.94
2019-06-20T09:47:13.800Z,1003.97
2019-06-20T09:48:12.964Z,1003.90
2019-06-20T09:49:13.075Z,1003.89
2019-06-20T09:50:12.972Z,1003.89
2019-06-20T09:51:13.181Z,1003.82
2019-06-20T09:52:13.084Z,1003.77
2019-06-20T09:53:13.081Z,1003.76
2019-06-20T09:54:13.086Z,1003.73
2019-06-20T09:55:13.076Z,1003.77
2019-06-20T09:56:12.964Z,1003.78
2019-06-20T09:57:13.039Z,1003.75
2019-06-20T09:58:13.117Z,1003.85
2019-06-20T09:59:26.824Z,1003.87
2019-06-20T10:00:13.132Z,1003.82
2019-06-20T10:01:13.813Z,1003.95
2019-06-20T10:02:13.814Z,1003.95
2019-06-20T10:03:13.155Z,1003.93
2019-06-20T10:04:13.055Z,1003.89
2019-06-20T10:05:13.221Z,1003.92
2019-06-20T10:06:14.583Z,1003.94
2019-06-20T10:07:13.076Z,1003.94
2019-06-20T10:08:13.282Z,1003.94
2019-06-20T10:09:13.178Z,1003.84
2019-06-20T10:10:13.187Z,1003.83
2019-06-20T10:11:13.183Z,1003.79
2019-06-20T10:12:13.280Z,1003.84
2019-06-20T10:13:13.197Z,1003.85
2019-06-20T10:14:13.243Z,1003.81
2019-06-20T10:15:13.301Z,1003.83
2019-06-20T10:16:13.321Z,1003.82
2019-06-20T10:17:13.242Z,1003.78
2019-06-20T10:18:13.295Z,1003.76
2019-06-20T10:19:13.517Z,1003.73
2019-06-20T10:20:13.253Z,1003.77
2019-06-20T10:21:13.227Z,1003.73
2019-06-20T10:22:13.314Z,1003.66
2019-06-20T10:23:13.293Z,1003.63
2019-06-20T10:24:13.270Z,1003.71
2019-06-20T10:25:13.257Z,1003.63
2019-06-20T10:26:13.411Z,1003.66
2019-06-20T10:27:13.343Z,1003.72
2019-06-20T10:28:13.328Z,1003.65
2019-06-20T10:29:13.323Z,1003.73
2019-06-20T10:30:14.633Z,1003.62
2019-06-20T10:31:13.493Z,1003.66
2019-06-20T10:32:15.432Z,1003.62
2019-06-20T10:33:13.408Z,1003.62
2019-06-20T10:34:13.423Z,1003.62
2019-06-20T10:35:13.487Z,1003.55
2019-06-20T10:36:13.489Z,1003.57
2019-06-20T10:37:14.371Z,1003.51
2019-06-20T10:38:13.479Z,1003.54
2019-06-20T10:39:13.467Z,1003.53
2019-06-20T10:40:13.729Z,1003.58
2019-06-20T10:41:13.463Z,1003.53
2019-06-20T10:42:13.776Z,1003.67
2019-06-20T10:43:13.454Z,1003.61
2019-06-20T10:44:13.594Z,1003.58
2019-06-20T10:45:15.292Z,1003.58
2019-06-20T10:46:13.535Z,1003.54
2019-06-20T10:47:13.641Z,1003.60
2019-06-20T10:48:13.742Z,1003.54
2019-06-20T10:49:15.315Z,1003.66
2019-06-20T10:50:13.571Z,1003.65
2019-06-20T10:51:13.676Z,1003.65
2019-06-20T10:52:13.637Z,1003.66
2019-06-20T10:53:13.636Z,1003.67
2019-06-20T10:54:13.820Z,1003.67
2019-06-20T10:55:13.721Z,1003.72
2019-06-20T10:56:13.896Z,1003.63
2019-06-20T10:57:13.674Z,1003.63
2019-06-20T10:58:13.740Z,1003.53
2019-06-20T10:59:13.692Z,1003.61
2019-06-20T11:00:29.304Z,1003.62
2019-06-20T11:01:13.634Z,1003.61
2019-06-20T11:02:13.798Z,1003.60
2019-06-20T11:03:13.725Z,1003.55
2019-06-20T11:04:13.758Z,1003.52
2019-06-20T11:05:13.743Z,1003.52
2019-06-20T11:06:13.815Z,1003.51
2019-06-20T11:07:13.783Z,1003.58
2019-06-20T11:08:13.826Z,1003.47
2019-06-20T11:09:13.740Z,1003.48
2019-06-20T11:10:13.897Z,1003.52
2019-06-20T11:11:13.874Z,1003.48
2019-06-20T11:12:13.876Z,1003.54
2019-06-20T11:13:13.953Z,1003.51
2019-06-20T11:15:15.144Z,1003.56
2019-06-20T11:17:14.176Z,1003.53
2019-06-20T11:18:14.178Z,1003.43
2019-06-20T11:19:14.749Z,1003.43
2019-06-20T11:20:14.174Z,1003.40
2019-06-20T11:22:14.139Z,1003.43
2019-06-20T11:23:14.229Z,1003.35
2019-06-20T11:24:14.246Z,1003.43
2019-06-20T11:25:14.223Z,1003.42
2019-06-20T11:26:14.227Z,1003.38
2019-06-20T11:27:14.213Z,1003.35
2019-06-20T11:28:15.131Z,1003.33
2019-06-20T11:29:14.767Z,1003.33
2019-06-20T11:32:14.238Z,1003.28
2019-06-20T11:33:14.217Z,1003.32
2019-06-20T11:35:14.213Z,1003.32
2019-06-20T11:36:14.223Z,1003.45
2019-06-20T11:37:14.191Z,1003.36
2019-06-20T11:38:14.228Z,1003.34
2019-06-20T11:39:14.742Z,1003.32
2019-06-20T11:40:14.190Z,1003.35
2019-06-20T11:41:14.709Z,1003.37
2019-06-20T11:42:14.731Z,1003.37
2019-06-20T11:43:14.138Z,1003.35
2019-06-20T11:44:14.229Z,1003.36
2019-06-20T11:45:15.711Z,1003.32
2019-06-20T11:47:14.149Z,1003.30
2019-06-20T11:48:14.144Z,1003.29
2019-06-20T11:49:14.749Z,1003.38
2019-06-20T11:50:14.151Z,1003.33
2019-06-20T11:51:14.127Z,1003.35
2019-06-20T11:52:19.245Z,1003.31
2019-06-20T11:53:14.129Z,1003.18
2019-06-20T11:55:14.164Z,1003.13
2019-06-20T11:56:14.120Z,1003.21
2019-06-20T11:58:14.668Z,1003.17
2019-06-20T11:59:14.143Z,1003.18
2019-06-20T12:00:14.121Z,1003.17
2019-06-20T12:01:14.116Z,1003.20
2019-06-20T12:02:14.142Z,1003.16
2019-06-20T12:03:14.102Z,1003.12
2019-06-20T12:04:14.173Z,1003.06
2019-06-20T12:05:16.158Z,1003.09
2019-06-20T12:06:14.100Z,1003.04
2019-06-20T12:07:15.148Z,1003.06
2019-06-20T12:08:14.100Z,1003.04
2019-06-20T12:10:14.166Z,1003.00
2019-06-20T12:11:14.123Z,1003.08
2019-06-20T12:12:14.625Z,1003.00
2019-06-20T12:14:14.066Z,1002.99
2019-06-20T12:15:14.125Z,1002.98
2019-06-20T12:16:14.087Z,1002.92
2019-06-20T12:17:16.750Z,1002.94
2019-06-20T12:18:14.089Z,1002.96
2019-06-20T12:19:14.072Z,1002.95
2019-06-20T12:21:14.069Z,1002.95
2019-06-20T12:22:14.055Z,1002.96
2019-06-20T12:23:14.058Z,1002.97
2019-06-20T12:24:14.518Z,1002.93
2019-06-20T12:27:14.083Z,1002.92
2019-06-20T12:28:14.022Z,1002.86
2019-06-20T12:29:14.029Z,1002.88
2019-06-20T12:30:14.045Z,1002.86
2019-06-20T12:31:19.338Z,1002.86
2019-06-20T12:32:14.024Z,1002.81
2019-06-20T12:33:14.039Z,1002.82
2019-06-20T12:34:14.049Z,1002.78
2019-06-20T12:36:14.027Z,1002.76
2019-06-20T12:37:14.015Z,1002.77
2019-06-20T12:39:14.561Z,1002.77
2019-06-20T12:40:14.020Z,1002.79
2019-06-20T12:41:14.791Z,1002.72
2019-06-20T12:42:15.259Z,1002.72
2019-06-20T12:44:13.981Z,1002.65
2019-06-20T12:45:13.996Z,1002.72
2019-06-20T12:46:13.993Z,1002.67
2019-06-20T12:47:14.709Z,1002.62
2019-06-20T12:48:14.570Z,1002.58
2019-06-20T12:49:14.738Z,1002.67
2019-06-20T12:50:14.592Z,1002.57
2019-06-20T12:51:16.746Z,1002.61
2019-06-20T12:52:14.529Z,1002.56
2019-06-20T12:53:13.992Z,1002.58
2019-06-20T12:54:13.953Z,1002.56
2019-06-20T12:55:13.984Z,1002.52
2019-06-20T12:56:14.479Z,1002.53
2019-06-20T12:57:14.019Z,1002.56
2019-06-20T12:59:13.997Z,1002.43
2019-06-20T13:01:13.942Z,1002.38
2019-06-20T13:02:14.006Z,1002.38